createdAt,value
2023-05-15T00:00:33.722Z,18.58
2023-05-15T00:11:21.760Z,17.97
2023-05-15T00:16:24.203Z,18.05
2023-05-15T00:21:25.963Z,17.12
2023-05-15T00:26:29.040Z,17.05
2023-05-15T00:31:30.882Z,15.75
2023-05-15T00:36:32.635Z,16.08
2023-05-15T00:41:36.512Z,17.42
2023-05-15T00:46:39.628Z,15.15
2023-05-15T00:51:41.842Z,16.65
2023-05-15T00:56:45.796Z,17.48
2023-05-15T01:01:47.481Z,16.90
2023-05-15T01:06:49.820Z,16.17
2023-05-15T01:11:54.905Z,16.52
2023-05-15T01:22:39.216Z,18.73
2023-05-15T01:27:48.662Z,17.87
2023-05-15T01:32:54.105Z,18.08
2023-05-15T01:38:16.649Z,17.55
2023-05-15T01:43:28.074Z,16.80
2023-05-15T01:48:33.995Z,17.25
2023-05-15T01:53:37.291Z,17.37
2023-05-15T01:58:41.319Z,16.08
2023-05-15T02:03:44.759Z,17.37
2023-05-15T02:08:48.070Z,16.42
2023-05-15T02:13:52.832Z,15.75
2023-05-15T02:18:54.841Z,17.80
2023-05-15T02:23:56.538Z,18.27
2023-05-15T02:29:10.447Z,17.98
2023-05-15T02:34:18.162Z,17.90
2023-05-15T02:39:21.283Z,18.98
2023-05-15T02:44:25.983Z,19.27
2023-05-15T02:49:27.842Z,18.05
2023-05-15T02:54:29.589Z,18.37
2023-05-15T02:59:32.798Z,18.15
2023-05-15T03:04:34.568Z,18.73
2023-05-15T03:09:36.298Z,17.33
2023-05-15T03:14:39.340Z,18.33
2023-05-15T03:19:41.060Z,19.08
2023-05-15T03:24:42.785Z,17.08
2023-05-15T03:29:48.834Z,18.80
2023-05-15T03:34:50.633Z,19.62
2023-05-15T03:39:52.375Z,19.77
2023-05-15T03:44:55.490Z,18.55
2023-05-15T03:49:57.530Z,17.25
2023-05-15T03:54:59.351Z,16.90
2023-05-15T04:00:05.039Z,17.35
2023-05-15T04:05:12.642Z,18.60
2023-05-15T04:10:14.562Z,19.27
2023-05-15T04:15:19.852Z,18.17
2023-05-15T04:20:23.307Z,17.48
2023-05-15T04:25:25.618Z,18.27
2023-05-15T04:30:34.719Z,16.70
2023-05-15T04:35:36.568Z,18.42
2023-05-15T04:40:38.383Z,19.55
2023-05-15T04:45:50.691Z,19.08
2023-05-15T04:50:52.374Z,18.45
2023-05-15T04:55:56.662Z,18.60
2023-05-15T05:01:01.999Z,16.73
2023-05-15T05:06:08.299Z,17.75
2023-05-15T05:11:10.203Z,18.35
2023-05-15T05:16:13.392Z,18.10
2023-05-15T05:21:15.178Z,18.00
2023-05-15T05:26:16.867Z,20.45
2023-05-15T05:31:20.537Z,20.88
2023-05-15T05:36:24.395Z,19.33
2023-05-15T05:41:26.208Z,18.17
2023-05-15T05:46:29.642Z,21.33
2023-05-15T05:51:31.713Z,21.48
2023-05-15T05:56:33.513Z,18.77
2023-05-15T06:01:36.841Z,18.75
2023-05-15T06:06:41.583Z,14.52
2023-05-15T06:11:43.289Z,15.60
2023-05-15T06:16:46.462Z,16.37
2023-05-15T06:21:48.441Z,18.05
2023-05-15T06:26:50.642Z,16.00
2023-05-15T06:31:55.619Z,14.77
2023-05-15T06:36:57.424Z,15.55
2023-05-15T06:41:59.160Z,15.00
2023-05-15T06:47:02.448Z,15.52
2023-05-15T06:52:04.822Z,15.70
2023-05-15T06:57:06.718Z,15.70
2023-05-15T07:02:10.020Z,14.98
2023-05-15T07:07:11.829Z,14.48
2023-05-15T07:12:13.611Z,14.20
2023-05-15T07:17:16.941Z,12.93
2023-05-15T07:22:18.645Z,14.50
2023-05-15T07:27:20.629Z,13.68
2023-05-15T07:32:27.061Z,15.70
2023-05-15T07:37:28.957Z,15.40
2023-05-15T07:42:30.706Z,15.18
2023-05-15T07:47:34.148Z,15.35
2023-05-15T07:52:36.315Z,14.73
2023-05-15T07:57:38.222Z,14.40
2023-05-15T08:02:41.640Z,14.45
2023-05-15T08:07:45.231Z,14.18
2023-05-15T08:12:51.898Z,15.23
2023-05-15T08:18:00.297Z,12.93
2023-05-15T08:23:09.447Z,13.02
2023-05-15T08:28:16.142Z,14.18
2023-05-15T08:33:19.472Z,13.38
2023-05-15T08:38:43.081Z,13.15
2023-05-15T08:43:45.753Z,13.95
2023-05-15T08:48:51.344Z,14.38
2023-05-15T08:53:53.425Z,13.13
2023-05-15T08:58:55.385Z,14.52
2023-05-15T09:04:00.623Z,13.32
2023-05-15T09:09:02.798Z,13.52
2023-05-15T09:14:04.542Z,13.82
2023-05-15T09:19:08.931Z,12.52
2023-05-15T09:24:16.834Z,16.23
2023-05-15T09:29:19.251Z,19.40
2023-05-15T09:34:29.810Z,15.85
2023-05-15T09:39:31.672Z,15.05
2023-05-15T09:44:33.699Z,19.55
2023-05-15T09:49:39.242Z,17.75
2023-05-15T09:54:47.013Z,15.40
2023-05-15T09:59:50.873Z,18.15
2023-05-15T10:04:58.236Z,18.75
2023-05-15T10:10:00.707Z,17.10
2023-05-15T10:15:04.031Z,17.27
2023-05-15T10:20:09.075Z,15.07
2023-05-15T10:30:17.531Z,17.02
2023-05-15T10:35:22.086Z,19.75
2023-05-15T10:40:24.543Z,19.80
2023-05-15T10:45:26.921Z,22.10
2023-05-15T10:50:38.273Z,23.00
2023-05-15T10:55:41.918Z,24.20
2023-05-15T11:00:45.100Z,22.00
2023-05-15T11:06:11.751Z,20.58
2023-05-15T11:11:43.485Z,20.52
2023-05-15T11:16:58.613Z,22.40
2023-05-15T11:22:03.251Z,26.25
2023-05-15T11:27:05.293Z,21.52
2023-05-15T11:32:43.352Z,23.83
2023-05-15T11:37:54.264Z,21.62
2023-05-15T11:43:04.225Z,22.50
2023-05-15T11:48:10.735Z,20.30
2023-05-15T11:53:22.441Z,21.67
2023-05-15T11:58:25.607Z,21.45
2023-05-15T12:03:32.699Z,22.85
2023-05-15T12:08:37.080Z,20.95
2023-05-15T12:13:51.377Z,24.97
2023-05-15T12:18:53.435Z,16.43
2023-05-15T12:24:07.127Z,18.30
2023-05-15T12:29:09.902Z,15.80
2023-05-15T12:34:11.901Z,17.35
2023-05-15T12:39:16.979Z,19.10
2023-05-15T12:49:23.555Z,14.13
2023-05-15T12:59:29.605Z,17.10
2023-05-15T13:04:32.978Z,16.92
2023-05-15T13:09:36.097Z,17.17
2023-05-15T13:14:37.843Z,18.62
2023-05-15T13:19:42.658Z,19.73
2023-05-15T13:24:47.228Z,19.35
2023-05-15T13:29:57.270Z,19.23
2023-05-15T13:35:04.492Z,21.27
2023-05-15T13:40:13.032Z,21.52
2023-05-15T13:45:15.953Z,17.05
2023-05-15T13:50:17.827Z,16.87
2023-05-15T13:55:22.996Z,17.12
2023-05-15T14:00:25.493Z,17.33
2023-05-15T14:05:27.570Z,16.00
2023-05-15T14:10:30.752Z,16.50
2023-05-15T14:15:32.487Z,15.35
2023-05-15T14:20:36.375Z,15.30
2023-05-15T14:25:40.939Z,15.52
2023-05-15T14:30:42.618Z,15.95
2023-05-15T14:35:44.330Z,14.20
2023-05-15T14:40:47.625Z,13.80
2023-05-15T14:45:49.312Z,21.15
2023-05-15T14:50:51.100Z,17.52
2023-05-15T14:55:54.848Z,18.27
2023-05-15T15:00:57.094Z,15.07
2023-05-15T15:05:58.769Z,16.30
2023-05-15T15:11:03.880Z,15.43
2023-05-15T15:16:05.785Z,17.17
2023-05-15T15:21:07.479Z,16.95
2023-05-15T15:26:10.545Z,17.75
2023-05-15T15:31:12.349Z,20.73
2023-05-15T15:36:16.354Z,16.70
2023-05-15T15:41:19.523Z,48.05
2023-05-15T15:46:21.297Z,15.90
2023-05-15T15:51:23.020Z,14.93
2023-05-15T15:56:26.185Z,14.05
2023-05-15T16:01:28.015Z,16.02
2023-05-15T16:06:29.745Z,14.40
2023-05-15T16:11:32.859Z,16.58
2023-05-15T16:16:34.576Z,15.35
2023-05-15T16:21:36.335Z,15.68
2023-05-15T16:26:39.435Z,14.43
2023-05-15T16:31:50.386Z,16.15
2023-05-15T16:36:52.186Z,16.02
2023-05-15T16:41:55.473Z,16.92
2023-05-15T16:46:57.307Z,17.10
2023-05-15T16:51:59.162Z,16.33
2023-05-15T16:57:02.338Z,17.65
2023-05-15T17:02:05.610Z,15.75
2023-05-15T17:07:07.269Z,17.98
2023-05-15T17:12:10.380Z,18.42
2023-05-15T17:17:12.185Z,20.50
2023-05-15T17:22:15.378Z,20.45
2023-05-15T17:27:19.319Z,19.95
2023-05-15T17:32:31.269Z,18.90
2023-05-15T17:37:33.272Z,18.35
2023-05-15T17:42:36.457Z,17.77
2023-05-15T17:47:38.431Z,16.77
2023-05-15T17:52:43.100Z,15.93
2023-05-15T17:57:47.062Z,17.45
2023-05-15T18:02:50.102Z,16.52
2023-05-15T18:08:01.040Z,15.32
2023-05-15T18:13:04.264Z,15.52
2023-05-15T18:18:06.296Z,16.17
2023-05-15T18:23:08.042Z,16.70
2023-05-15T18:28:11.207Z,15.43
2023-05-15T18:33:14.805Z,16.45
2023-05-15T18:38:23.290Z,17.85
2023-05-15T18:43:27.599Z,17.48
2023-05-15T18:48:32.440Z,16.70
2023-05-15T18:53:34.129Z,17.73
2023-05-15T18:58:37.238Z,17.17
2023-05-15T19:03:39.177Z,17.02
2023-05-15T19:08:41.052Z,17.55
2023-05-15T19:13:44.220Z,25.08
2023-05-15T19:18:46.057Z,19.25
2023-05-15T19:23:47.948Z,17.92
2023-05-15T19:28:51.262Z,17.23
2023-05-15T19:33:53.194Z,19.00
2023-05-15T19:38:55.169Z,17.85
2023-05-15T19:43:58.703Z,17.77
2023-05-15T19:49:00.496Z,16.55
2023-05-15T19:54:02.288Z,17.08
2023-05-15T19:59:05.401Z,18.48
2023-05-15T20:04:07.216Z,18.52
2023-05-15T20:09:08.935Z,18.67
2023-05-15T20:14:12.794Z,24.17
2023-05-15T20:19:14.602Z,20.08
2023-05-15T20:24:16.580Z,20.67
2023-05-15T20:29:19.679Z,20.00
2023-05-15T20:34:21.426Z,19.65
2023-05-15T20:39:23.152Z,18.90
2023-05-15T20:44:26.202Z,19.90
2023-05-15T20:49:28.015Z,27.50
2023-05-15T20:54:29.923Z,24.17
2023-05-15T20:59:32.970Z,27.40
2023-05-15T21:04:36.300Z,26.85
2023-05-15T21:09:37.999Z,22.17
2023-05-15T21:14:41.112Z,21.85
2023-05-15T21:19:42.788Z,22.58
2023-05-15T21:24:44.576Z,24.17
2023-05-15T21:29:47.562Z,22.13
2023-05-15T21:34:49.357Z,23.55
2023-05-15T21:39:51.106Z,27.75
2023-05-15T21:44:54.240Z,23.75
2023-05-15T21:49:55.999Z,28.52
2023-05-15T21:54:57.786Z,29.70
2023-05-15T22:00:01.128Z,29.80
2023-05-15T22:05:03.229Z,34.10
2023-05-15T22:10:06.142Z,39.58
2023-05-15T22:15:10.890Z,37.40
2023-05-15T22:20:13.294Z,42.28
2023-05-15T22:25:15.061Z,37.42
2023-05-15T22:30:18.259Z,36.33
2023-05-15T22:35:20.170Z,32.17
2023-05-15T22:40:21.927Z,38.78
2023-05-15T22:45:25.073Z,33.17
2023-05-15T22:50:27.047Z,34.55
2023-05-15T22:55:28.935Z,40.38
2023-05-15T23:00:32.927Z,36.85
2023-05-15T23:05:34.830Z,36.92
2023-05-15T23:10:36.829Z,36.97
2023-05-15T23:15:40.023Z,52.83
2023-05-15T23:20:41.743Z,48.95
2023-05-15T23:25:43.440Z,43.87
2023-05-15T23:30:52.263Z,41.63
2023-05-15T23:35:53.957Z,45.63
2023-05-15T23:40:55.730Z,46.55
2023-05-15T23:45:59.026Z,50.55
2023-05-15T23:51:00.720Z,52.97
2023-05-15T23:56:02.466Z,51.00
